Time;durP1;ratioP1;P1;durP2;ratioP2;P2;SDS_P1;SDS_P2;PMS_P1;PMS_P2;Temp;Humidity;BMP_temperature;BMP_pressure;BME280_temperature;BME280_humidity;BME280_pressure;Samples;Min_cycle;Max_cycle;Signal;HPM_P1;HPM_P2
2022/12/04 00:02:03;;;;;;;2.95;1.80;;;7.70;36.20;;;;;;5054224;28;20234;-71
2022/12/04 00:04:29;;;;;;;1.70;1.10;;;7.50;36.30;;;;;;5054013;28;20187;-70
2022/12/04 00:06:55;;;;;;;1.70;1.10;;;7.20;37.00;;;;;;5054541;28;20180;-70
2022/12/04 00:09:21;;;;;;;4.00;1.73;;;7.20;36.40;;;;;;5054272;28;20203;-70
2022/12/04 00:11:46;;;;;;;1.80;1.20;;;7.20;37.00;;;;;;5053524;28;20168;-71
2022/12/04 00:14:12;;;;;;;2.00;1.40;;;7.60;35.40;;;;;;5054920;28;20185;-70
2022/12/04 00:16:37;;;;;;;1.70;1.20;;;7.60;35.80;;;;;;5052985;28;20172;-71
2022/12/04 00:19:04;;;;;;;1.70;1.10;;;7.40;35.90;;;;;;5054689;28;20629;-72
2022/12/04 00:21:29;;;;;;;1.70;1.10;;;7.50;36.30;;;;;;5052920;28;20186;-70
2022/12/04 00:23:55;;;;;;;1.70;1.10;;;7.50;37.10;;;;;;5055114;28;20206;-71
2022/12/04 00:26:24;;;;;;;2.57;1.83;;;7.20;37.90;;;;;;5054383;28;20663;-70
2022/12/04 00:28:50;;;;;;;1.80;1.20;;;7.20;38.10;;;;;;5053493;28;20586;-71
2022/12/04 00:31:22;;;;;;;1.80;1.30;;;7.20;38.50;;;;;;5054174;28;20188;-70
2022/12/04 00:33:48;;;;;;;2.00;1.52;;;7.30;38.60;;;;;;5053003;28;20180;-71
2022/12/04 00:36:17;;;;;;;1.90;1.27;;;7.40;37.60;;;;;;5059731;28;20190;-70
2022/12/04 00:38:44;;;;;;;2.05;1.40;;;7.70;37.80;;;;;;5073630;28;20198;-70
2022/12/04 00:41:11;;;;;;;1.70;1.20;;;7.40;37.20;;;;;;5063270;28;20237;-72
2022/12/04 00:43:38;;;;;;;2.33;1.38;;;7.20;37.00;;;;;;5053080;28;20191;-70
2022/12/04 00:46:04;;;;;;;1.63;1.10;;;7.50;37.40;;;;;;5054798;28;20188;-72
2022/12/04 00:48:29;;;;;;;2.83;2.13;;;7.70;36.60;;;;;;5053553;28;20207;-72
2022/12/04 00:50:57;;;;;;;1.83;1.33;;;8.10;36.20;;;;;;5052398;28;20709;-70
2022/12/04 00:53:22;;;;;;;1.70;1.10;;;8.00;35.30;;;;;;5055087;28;20180;-71
2022/12/04 00:55:48;;;;;;;1.60;1.10;;;7.90;34.70;;;;;;5053502;28;20176;-73
2022/12/04 00:58:13;;;;;;;1.80;1.20;;;7.70;35.00;;;;;;5053080;28;20180;-70
2022/12/04 01:00:41;;;;;;;1.70;1.20;;;7.60;35.80;;;;;;5052798;28;20176;-70
2022/12/04 01:03:08;;;;;;;1.70;1.17;;;7.10;36.00;;;;;;5053281;28;20229;-70
2022/12/04 01:05:42;;;;;;;2.17;1.75;;;7.00;38.20;;;;;;5052751;28;20275;-70
2022/12/04 01:08:09;;;;;;;1.70;1.20;;;7.50;37.60;;;;;;5054361;28;20212;-70
2022/12/04 01:10:37;;;;;;;1.80;1.20;;;7.60;36.00;;;;;;5052989;28;20754;-71
2022/12/04 01:13:03;;;;;;;1.80;1.23;;;7.60;36.20;;;;;;5050643;28;20191;-70
2022/12/04 01:15:28;;;;;;;1.67;1.10;;;7.70;35.80;;;;;;5054757;28;20183;-70
2022/12/04 01:17:54;;;;;;;2.67;1.67;;;7.80;35.80;;;;;;5053602;28;20263;-70
2022/12/04 01:20:20;;;;;;;1.93;1.37;;;8.50;34.90;;;;;;5053035;28;20202;-70
2022/12/04 01:22:45;;;;;;;1.83;1.30;;;8.10;34.50;;;;;;5052394;28;20650;-71
2022/12/04 01:25:11;;;;;;;2.03;1.47;;;8.20;35.50;;;;;;5050979;28;20191;-70
2022/12/04 01:27:36;;;;;;;4.13;2.10;;;7.70;35.20;;;;;;5053871;28;20553;-70
2022/12/04 01:30:02;;;;;;;1.90;1.40;;;7.60;35.40;;;;;;5067532;28;20207;-70
2022/12/04 01:32:28;;;;;;;2.57;1.97;;;7.50;36.30;;;;;;5072597;28;20163;-70
2022/12/04 01:34:53;;;;;;;1.80;1.30;;;7.60;36.40;;;;;;5061182;28;20438;-71
2022/12/04 01:37:19;;;;;;;4.63;1.60;;;7.70;36.10;;;;;;5052974;28;20172;-71
2022/12/04 01:39:45;;;;;;;1.80;1.30;;;7.90;35.60;;;;;;5053966;28;20690;-70
2022/12/04 01:42:13;;;;;;;1.70;1.20;;;7.80;35.80;;;;;;5052378;28;20184;-70
2022/12/04 01:44:42;;;;;;;1.70;1.10;;;7.60;36.00;;;;;;5050866;28;20172;-70
2022/12/04 01:47:09;;;;;;;1.85;1.30;;;7.60;36.30;;;;;;5054453;28;20683;-70
2022/12/04 01:49:47;;;;;;;1.60;1.10;;;7.70;35.80;;;;;;5052149;28;20242;-71
2022/12/04 01:52:21;;;;;;;1.80;1.25;;;7.70;35.60;;;;;;5050074;28;20229;-70
2022/12/04 01:54:51;;;;;;;3.28;2.58;;;7.50;36.10;;;;;;5051763;28;20164;-71
2022/12/04 01:57:19;;;;;;;1.80;1.20;;;7.60;36.00;;;;;;5054164;28;20204;-70
2022/12/04 01:59:49;;;;;;;1.80;1.20;;;7.30;36.10;;;;;;5052093;28;20274;-70
2022/12/04 02:02:21;;;;;;;1.65;1.20;;;7.10;36.80;;;;;;5053178;28;20264;-70
2022/12/04 02:04:47;;;;;;;1.67;1.10;;;7.20;36.70;;;;;;5052140;28;20255;-70
2022/12/04 02:07:13;;;;;;;1.63;1.08;;;7.30;36.60;;;;;;5050789;28;20670;-70
2022/12/04 02:09:39;;;;;;;2.20;1.43;;;7.00;37.20;;;;;;5050519;28;20219;-71
2022/12/04 02:12:32;;;;;;;3.13;1.83;;;7.00;37.80;;;;;;5051541;28;20709;-70
2022/12/04 02:15:18;;;;;;;1.70;1.10;;;7.40;37.00;;;;;;5047423;28;20204;-70
2022/12/04 02:17:46;;;;;;;4.60;2.38;;;7.50;36.80;;;;;;5045962;28;20164;-72
2022/12/04 02:20:30;;;;;;;1.80;1.30;;;7.50;36.70;;;;;;5049528;28;20200;-71
2022/12/04 02:23:27;;;;;;;1.80;1.30;;;7.50;36.70;;;;;;5049076;28;20658;-71
2022/12/04 02:26:05;;;;;;;1.70;1.17;;;7.50;36.80;;;;;;5047246;28;20183;-71
2022/12/04 02:28:41;;;;;;;2.03;1.40;;;7.50;36.60;;;;;;5051189;28;20578;-70
2022/12/04 02:31:14;;;;;;;1.60;1.00;;;7.60;36.50;;;;;;5060661;28;20184;-70
2022/12/04 02:34:23;;;;;;;1.67;1.15;;;8.10;37.10;;;;;;5051624;28;20251;-70
2022/12/04 02:36:57;;;;;;;2.42;1.40;;;7.60;36.60;;;;;;5019153;28;20651;-70
2022/12/04 02:40:01;;;;;;;1.73;1.20;;;7.70;37.60;;;;;;5051920;28;20287;-71
2022/12/04 02:42:40;;;;;;;1.70;1.20;;;7.70;37.10;;;;;;5006961;28;20201;-71
2022/12/04 02:45:13;;;;;;;1.80;1.30;;;7.80;37.40;;;;;;5047442;28;20191;-70
2022/12/04 02:47:41;;;;;;;3.35;2.00;;;7.70;37.50;;;;;;5051831;28;20705;-71
2022/12/04 02:50:16;;;;;;;1.90;1.38;;;10.00;38.30;;;;;;5062357;28;20274;-70
2022/12/04 02:52:57;;;;;;;1.60;1.10;;;7.60;37.30;;;;;;5048682;28;20188;-70
2022/12/04 02:55:32;;;;;;;5.68;2.47;;;7.70;37.30;;;;;;5051111;28;20609;-70
2022/12/04 02:58:03;;;;;;;1.63;1.10;;;7.60;37.80;;;;;;5050467;28;20183;-70
2022/12/04 03:00:31;;;;;;;1.92;1.40;;;7.60;38.30;;;;;;5046928;28;20570;-71
2022/12/04 03:03:12;;;;;;;7.20;1.67;;;7.70;37.40;;;;;;5052508;28;20197;-70
2022/12/04 03:05:44;;;;;;;16.60;2.33;;;7.80;37.10;;;;;;5050215;28;20551;-71
2022/12/04 03:08:15;;;;;;;1.70;1.10;;;7.70;37.00;;;;;;5051249;28;20211;-70
2022/12/04 03:10:47;;;;;;;1.70;1.10;;;7.50;37.70;;;;;;5052328;28;20725;-69
2022/12/04 03:13:27;;;;;;;1.90;1.30;;;7.70;37.20;;;;;;5050076;28;20222;-70
2022/12/04 03:16:06;;;;;;;2.45;1.65;;;7.70;37.40;;;;;;5047193;28;20631;-70
2022/12/04 03:18:45;;;;;;;1.70;1.10;;;7.80;37.30;;;;;;5031202;28;20256;-71
2022/12/04 03:21:18;;;;;;;2.50;2.20;;;7.70;37.60;;;;;;5039738;28;20262;-70
2022/12/04 03:23:52;;;;;;;1.85;1.25;;;7.70;37.70;;;;;;5063179;28;20605;-70
2022/12/04 03:26:26;;;;;;;1.65;1.10;;;7.50;38.60;;;;;;5053985;28;20180;-69
2022/12/04 03:29:13;;;;;;;1.75;1.13;;;7.40;39.30;;;;;;5054382;28;20267;-70
2022/12/04 03:32:12;;;;;;;1.70;1.17;;;7.50;38.60;;;;;;5049627;28;20172;-71
2022/12/04 03:34:42;;;;;;;1.73;1.30;;;7.60;38.20;;;;;;5017938;28;20183;-70
2022/12/04 03:37:16;;;;;;;1.70;1.20;;;7.60;38.40;;;;;;5052921;28;20187;-70
2022/12/04 03:39:59;;;;;;;1.77;1.30;;;7.70;38.10;;;;;;5054993;28;20269;-71
2022/12/04 03:42:32;;;;;;;1.65;1.20;;;7.60;38.30;;;;;;5055845;28;20174;-70
2022/12/04 03:45:09;;;;;;;1.70;1.10;;;7.60;38.10;;;;;;5054315;28;20274;-70
2022/12/04 03:48:14;;;;;;;2.75;1.85;;;7.60;38.20;;;;;;5054946;28;20203;-71
2022/12/04 03:50:51;;;;;;;1.67;1.13;;;7.60;38.50;;;;;;4979738;28;20237;-71
2022/12/04 03:53:31;;;;;;;3.25;1.75;;;7.70;38.40;;;;;;4974179;28;20557;-71
2022/12/04 03:56:19;;;;;;;1.70;1.10;;;7.70;38.50;;;;;;4981101;28;20749;-73
2022/12/04 03:58:54;;;;;;;1.80;1.30;;;7.60;38.60;;;;;;4969891;28;20333;-72
2022/12/04 04:01:26;;;;;;;1.70;1.20;;;7.60;38.40;;;;;;4982204;28;20205;-72
2022/12/04 04:03:56;;;;;;;2.10;1.45;;;7.60;38.50;;;;;;4978914;28;20198;-70
2022/12/04 04:06:25;;;;;;;1.98;1.50;;;7.70;38.40;;;;;;4972289;28;20193;-70
2022/12/04 04:08:55;;;;;;;2.03;1.55;;;7.60;38.70;;;;;;4971967;28;20365;-71
2022/12/04 04:11:27;;;;;;;2.60;1.80;;;7.50;38.40;;;;;;4991863;28;20182;-71
2022/12/04 04:25:15;;;;;;;2.05;1.35;;;7.60;38.50;;;;;;5034539;28;20210;-70
2022/12/04 04:27:41;;;;;;;2.20;1.73;;;7.70;38.30;;;;;;5052475;28;20662;-70
2022/12/04 04:30:08;;;;;;;1.80;1.20;;;7.70;38.80;;;;;;5055567;28;20224;-70
2022/12/04 04:32:59;;;;;;;1.80;1.30;;;7.70;38.60;;;;;;5053616;28;20472;-71
2022/12/04 04:35:49;;;;;;;1.90;1.40;;;7.80;38.10;;;;;;5008056;28;20189;-70
2022/12/04 04:38:39;;;;;;;4.35;1.45;;;7.90;36.50;;;;;;5005823;28;20241;-72
2022/12/04 04:41:19;;;;;;;1.70;1.20;;;7.80;36.70;;;;;;4991469;28;20197;-70
2022/12/04 04:43:51;;;;;;;1.80;1.42;;;7.60;36.90;;;;;;5002786;28;20769;-69
2022/12/04 04:46:22;;;;;;;1.70;1.13;;;8.00;37.00;;;;;;5003518;28;20188;-71
2022/12/04 04:48:51;;;;;;;1.95;1.40;;;7.60;36.60;;;;;;4989581;28;20247;-70
2022/12/04 04:51:18;;;;;;;1.73;1.23;;;7.90;36.90;;;;;;4993277;28;20190;-71
2022/12/04 04:53:52;;;;;;;1.80;1.50;;;7.60;36.40;;;;;;5002450;28;20185;-70
2022/12/04 04:56:18;;;;;;;1.60;1.10;;;7.50;36.90;;;;;;4992586;28;20173;-70
2022/12/04 04:58:44;;;;;;;1.83;1.48;;;7.50;36.90;;;;;;4990841;28;20367;-72
2022/12/04 05:01:16;;;;;;;2.23;1.50;;;7.00;37.40;;;;;;4990496;28;20197;-70
2022/12/04 05:03:42;;;;;;;1.70;1.10;;;7.00;38.00;;;;;;4996260;28;20185;-70
2022/12/04 05:06:07;;;;;;;1.67;1.23;;;6.80;37.70;;;;;;5000346;28;20178;-70
2022/12/04 05:08:34;;;;;;;1.77;1.20;;;7.20;37.20;;;;;;4994702;28;20642;-70
2022/12/04 05:11:00;;;;;;;2.00;1.50;;;7.20;36.90;;;;;;4993662;28;20193;-70
2022/12/04 05:13:27;;;;;;;1.70;1.20;;;7.30;37.40;;;;;;5051639;28;20543;-70
2022/12/04 05:16:01;;;;;;;1.70;1.10;;;6.90;37.80;;;;;;5053395;28;20525;-70
2022/12/04 05:18:27;;;;;;;1.70;1.20;;;7.30;38.40;;;;;;5054062;28;20245;-70
2022/12/04 05:20:53;;;;;;;2.67;1.73;;;7.20;37.50;;;;;;5052358;28;20659;-71
2022/12/04 05:23:18;;;;;;;1.70;1.10;;;7.40;37.10;;;;;;5052885;28;20498;-71
2022/12/04 05:25:44;;;;;;;2.27;1.50;;;7.20;36.60;;;;;;5052313;28;20180;-70
2022/12/04 05:28:10;;;;;;;4.70;1.97;;;6.80;37.60;;;;;;5054622;28;20551;-69
2022/12/04 05:30:35;;;;;;;1.80;1.30;;;6.70;38.00;;;;;;5064799;28;20210;-71
2022/12/04 05:33:01;;;;;;;1.70;1.10;;;6.80;37.80;;;;;;5054389;28;20187;-71
2022/12/04 05:35:27;;;;;;;2.10;1.33;;;6.70;38.00;;;;;;5052785;28;20203;-70
2022/12/04 05:37:52;;;;;;;1.80;1.30;;;7.10;37.20;;;;;;5052730;28;20186;-70
2022/12/04 05:40:18;;;;;;;1.73;1.13;;;7.30;36.90;;;;;;5053422;28;20279;-70
2022/12/04 05:42:44;;;;;;;2.45;1.30;;;7.30;37.00;;;;;;5051673;28;20191;-70
2022/12/04 05:45:10;;;;;;;2.03;1.30;;;7.40;36.90;;;;;;5052383;28;20184;-71
2022/12/04 05:47:40;;;;;;;1.70;1.20;;;7.30;37.00;;;;;;5052635;28;20169;-72
2022/12/04 05:50:07;;;;;;;1.80;1.23;;;7.20;37.00;;;;;;5053845;28;20638;-72
2022/12/04 05:52:33;;;;;;;1.90;1.30;;;7.30;37.90;;;;;;5052263;28;20529;-74
2022/12/04 05:54:59;;;;;;;1.67;1.10;;;7.40;36.20;;;;;;5052295;28;20179;-74
2022/12/04 05:57:24;;;;;;;3.10;1.90;;;7.30;36.50;;;;;;5052037;28;20659;-74
2022/12/04 05:59:50;;;;;;;1.70;1.10;;;7.50;37.10;;;;;;5051494;28;20203;-75
2022/12/04 06:02:16;;;;;;;1.60;1.10;;;7.40;36.60;;;;;;5051601;28;20179;-77
2022/12/04 06:04:41;;;;;;;1.70;1.10;;;7.30;36.80;;;;;;5051756;28;20233;-74
2022/12/04 06:07:09;;;;;;;2.53;1.63;;;7.20;37.00;;;;;;5053367;28;20433;-70
2022/12/04 06:09:34;;;;;;;1.70;1.17;;;7.30;37.20;;;;;;5049442;28;20690;-69
2022/12/04 06:12:00;;;;;;;1.93;1.30;;;7.30;37.20;;;;;;5051870;28;20184;-69
2022/12/04 06:14:26;;;;;;;1.70;1.30;;;7.30;36.80;;;;;;5052286;28;20180;-73
2022/12/04 06:16:51;;;;;;;1.67;1.03;;;7.40;36.40;;;;;;5050696;28;20500;-70
2022/12/04 06:19:19;;;;;;;1.63;1.07;;;7.40;36.10;;;;;;5052196;28;20200;-70
2022/12/04 06:21:48;;;;;;;2.00;1.40;;;7.50;36.00;;;;;;5051248;28;20187;-70
2022/12/04 06:24:16;;;;;;;1.70;1.10;;;7.60;36.50;;;;;;5052609;28;20553;-70
2022/12/04 06:26:42;;;;;;;1.77;1.13;;;7.70;36.00;;;;;;5049954;28;20230;-70
2022/12/04 06:29:09;;;;;;;2.43;1.63;;;7.60;35.80;;;;;;5051416;28;20239;-70
2022/12/04 06:31:36;;;;;;;1.85;1.30;;;7.50;36.80;;;;;;5051765;28;20195;-71
2022/12/04 06:34:02;;;;;;;3.15;1.63;;;7.60;36.10;;;;;;5051911;28;20218;-70
2022/12/04 06:36:28;;;;;;;1.70;1.17;;;7.70;36.40;;;;;;5051433;28;20236;-70
2022/12/04 06:38:55;;;;;;;2.17;1.40;;;7.70;36.40;;;;;;5051486;28;20195;-70
2022/12/04 06:41:21;;;;;;;1.70;1.10;;;7.50;37.00;;;;;;5051732;28;20274;-70
2022/12/04 06:43:47;;;;;;;3.88;2.15;;;7.50;37.50;;;;;;5051521;28;20184;-71
2022/12/04 06:46:18;;;;;;;1.70;1.10;;;7.60;37.70;;;;;;5050633;28;20180;-70
2022/12/04 06:48:44;;;;;;;1.90;1.50;;;7.40;37.90;;;;;;5049936;28;20219;-70
2022/12/04 06:51:19;;;;;;;1.80;1.20;;;7.50;38.20;;;;;;5050487;28;20183;-71
2022/12/04 06:53:45;;;;;;;1.90;1.20;;;7.30;38.70;;;;;;5051293;28;20189;-73
2022/12/04 06:56:16;;;;;;;2.10;1.47;;;7.50;39.80;;;;;;5051588;28;20325;-70
2022/12/04 06:58:46;;;;;;;1.70;1.20;;;7.60;38.60;;;;;;5048543;28;20235;-71
2022/12/04 07:01:15;;;;;;;1.63;1.10;;;7.60;38.60;;;;;;5052325;28;20663;-71
2022/12/04 07:03:42;;;;;;;1.80;1.20;;;7.70;38.10;;;;;;5049756;28;20214;-71
2022/12/04 07:06:22;;;;;;;1.67;1.13;;;7.70;38.00;;;;;;5050083;28;20245;-73
2022/12/04 07:08:51;;;;;;;1.77;1.25;;;7.70;38.20;;;;;;5045394;28;20207;-72
2022/12/04 07:11:17;;;;;;;2.05;1.48;;;7.60;39.00;;;;;;5050771;28;20187;-71
2022/12/04 07:13:43;;;;;;;1.80;1.20;;;7.50;39.00;;;;;;5050958;28;20542;-70
2022/12/04 07:16:12;;;;;;;1.70;1.20;;;7.60;38.20;;;;;;5053497;28;20187;-71
2022/12/04 07:18:38;;;;;;;1.70;1.20;;;7.60;38.40;;;;;;5049407;28;20199;-74
2022/12/04 07:21:05;;;;;;;1.70;1.10;;;7.40;39.00;;;;;;5049096;28;20261;-71
2022/12/04 07:23:31;;;;;;;1.73;1.10;;;7.40;39.40;;;;;;5051106;28;20167;-70
2022/12/04 07:25:57;;;;;;;1.70;1.20;;;7.50;39.10;;;;;;5054449;28;20200;-71
2022/12/04 07:28:23;;;;;;;2.83;1.70;;;7.60;38.50;;;;;;5049929;28;20275;-72
2022/12/04 07:30:49;;;;;;;1.70;1.20;;;7.70;38.40;;;;;;5050330;28;20180;-71
2022/12/04 07:33:14;;;;;;;1.80;1.30;;;7.60;38.50;;;;;;5051089;28;20639;-71
2022/12/04 07:35:40;;;;;;;1.90;1.30;;;7.80;38.80;;;;;;5050955;28;20176;-70
2022/12/04 07:38:05;;;;;;;1.70;1.20;;;7.70;38.40;;;;;;5050895;28;20168;-71
2022/12/04 07:40:31;;;;;;;1.67;1.20;;;7.70;38.10;;;;;;5049698;28;20547;-71
2022/12/04 07:42:56;;;;;;;2.10;1.60;;;7.70;37.90;;;;;;5050668;28;20176;-71
2022/12/04 07:45:22;;;;;;;1.67;1.10;;;7.70;37.70;;;;;;5051038;28;20543;-71
2022/12/04 07:47:47;;;;;;;1.87;1.27;;;7.80;37.50;;;;;;5068254;28;20172;-71
2022/12/04 07:50:13;;;;;;;1.70;1.20;;;7.80;37.60;;;;;;5057799;28;20212;-71
2022/12/04 07:52:39;;;;;;;1.60;1.10;;;7.80;37.40;;;;;;5049304;28;20172;-71
2022/12/04 07:55:05;;;;;;;1.70;1.20;;;7.70;37.50;;;;;;5050624;28;20219;-73
2022/12/04 07:57:32;;;;;;;1.80;1.33;;;7.90;37.30;;;;;;5053131;28;20480;-70
2022/12/04 07:59:58;;;;;;;2.42;1.65;;;7.70;36.90;;;;;;5052330;28;20207;-70
2022/12/04 08:02:23;;;;;;;1.70;1.20;;;7.30;38.60;;;;;;5051338;28;20183;-70
2022/12/04 08:04:49;;;;;;;2.20;1.60;;;7.50;39.20;;;;;;5050692;28;20417;-70
2022/12/04 08:07:15;;;;;;;2.10;1.30;;;7.70;38.70;;;;;;5050897;28;20253;-75
2022/12/04 08:09:40;;;;;;;2.13;1.60;;;7.70;37.80;;;;;;5050914;28;20838;-70
2022/12/04 08:12:06;;;;;;;1.87;1.33;;;7.80;37.60;;;;;;5059422;28;20659;-72
2022/12/04 08:14:32;;;;;;;4.30;2.80;;;7.90;37.70;;;;;;5053918;28;20254;-74
2022/12/04 08:16:57;;;;;;;2.13;1.50;;;7.80;37.50;;;;;;5054530;28;20214;-75
2022/12/04 08:19:23;;;;;;;2.63;1.40;;;7.50;38.10;;;;;;5054214;28;20195;-74
2022/12/04 08:21:49;;;;;;;1.90;1.40;;;7.60;38.00;;;;;;5043041;28;20184;-76
2022/12/04 08:24:15;;;;;;;4.33;2.07;;;7.70;37.90;;;;;;5052907;28;20214;-74
2022/12/04 08:26:40;;;;;;;1.77;1.20;;;7.80;37.60;;;;;;5056319;28;20418;-73
2022/12/04 08:29:07;;;;;;;1.70;1.20;;;7.90;37.50;;;;;;5073351;28;20253;-75
2022/12/04 08:31:34;;;;;;;1.70;1.23;;;7.90;37.00;;;;;;5072659;28;20167;-72
2022/12/04 08:34:02;;;;;;;1.65;1.10;;;7.90;36.90;;;;;;5052804;28;20249;-74
2022/12/04 08:36:28;;;;;;;2.55;1.48;;;7.80;38.10;;;;;;5055067;28;20202;-73
2022/12/04 08:38:54;;;;;;;1.67;1.10;;;7.80;37.80;;;;;;5053977;28;20663;-77
2022/12/04 08:41:22;;;;;;;1.80;1.40;;;7.90;37.80;;;;;;5052716;28;20468;-76
2022/12/04 08:43:48;;;;;;;1.90;1.50;;;7.90;38.00;;;;;;5053720;28;20184;-70
2022/12/04 08:46:16;;;;;;;1.70;1.10;;;7.80;37.20;;;;;;5054154;28;20252;-73
2022/12/04 08:48:42;;;;;;;1.67;1.20;;;8.00;37.00;;;;;;5051433;28;20222;-73
2022/12/04 08:51:17;;;;;;;3.40;1.98;;;7.90;36.80;;;;;;5053495;28;20322;-71
2022/12/04 08:53:43;;;;;;;1.85;1.30;;;8.00;36.60;;;;;;5062096;28;20194;-71
2022/12/04 08:56:09;;;;;;;2.33;1.50;;;8.10;37.20;;;;;;5052077;28;20184;-71
2022/12/04 08:58:34;;;;;;;1.90;1.40;;;7.90;36.70;;;;;;5052947;28;20766;-71
2022/12/04 09:01:04;;;;;;;1.80;1.37;;;7.90;36.50;;;;;;5053195;28;20800;-74
2022/12/04 09:03:30;;;;;;;1.70;1.20;;;8.00;37.20;;;;;;5054641;28;20179;-73
2022/12/04 09:05:58;;;;;;;1.90;1.40;;;8.30;37.40;;;;;;5053121;28;20179;-76
2022/12/04 09:08:24;;;;;;;1.60;1.10;;;7.80;37.70;;;;;;5052654;28;20701;-70
2022/12/04 09:10:49;;;;;;;3.50;1.87;;;7.90;37.10;;;;;;5052086;28;20187;-70
2022/12/04 09:13:15;;;;;;;2.20;1.63;;;8.00;36.70;;;;;;5052501;28;20180;-71
2022/12/04 09:15:41;;;;;;;1.80;1.30;;;8.10;37.20;;;;;;5051838;28;20187;-76
2022/12/04 09:18:07;;;;;;;3.05;2.33;;;8.00;36.80;;;;;;5049068;28;20272;-73
2022/12/04 09:20:33;;;;;;;1.80;1.20;;;7.90;36.50;;;;;;5051377;28;20211;-70
2022/12/04 09:22:59;;;;;;;2.15;1.30;;;7.80;37.20;;;;;;5050624;28;20180;-71
2022/12/04 09:25:25;;;;;;;3.40;1.60;;;7.60;37.80;;;;;;5052063;28;20238;-75
2022/12/04 09:27:50;;;;;;;3.50;2.30;;;7.60;38.10;;;;;;5053864;28;20726;-71
2022/12/04 09:30:16;;;;;;;1.63;1.10;;;7.60;37.80;;;;;;5052219;28;20215;-70
2022/12/04 09:32:42;;;;;;;2.03;1.53;;;7.70;37.90;;;;;;5051796;28;20164;-71
2022/12/04 09:35:08;;;;;;;2.10;1.40;;;8.00;37.40;;;;;;5053866;28;20191;-73
2022/12/04 09:37:35;;;;;;;1.70;1.20;;;7.80;37.30;;;;;;5053085;28;20268;-71
2022/12/04 09:40:05;;;;;;;3.65;2.10;;;8.10;37.20;;;;;;5052535;28;20796;-70
2022/12/04 09:42:48;;;;;;;2.00;1.58;;;8.10;37.20;;;;;;5051403;28;20195;-70
2022/12/04 09:45:19;;;;;;;1.83;1.33;;;7.90;37.10;;;;;;5050803;28;20180;-70
2022/12/04 09:47:49;;;;;;;1.70;1.20;;;7.60;38.30;;;;;;5052812;28;20196;-70
2022/12/04 09:50:24;;;;;;;1.80;1.20;;;7.70;38.40;;;;;;5053162;28;20196;-74
2022/12/04 09:53:01;;;;;;;3.35;1.95;;;8.00;37.50;;;;;;5052321;28;20244;-73
2022/12/04 09:55:35;;;;;;;1.70;1.27;;;8.10;37.80;;;;;;5049861;28;20317;-73
2022/12/04 09:58:04;;;;;;;1.60;1.10;;;7.80;37.60;;;;;;5052632;28;20250;-73
2022/12/04 10:00:35;;;;;;;2.35;1.67;;;7.30;39.10;;;;;;5036170;28;20231;-70
2022/12/04 10:03:05;;;;;;;1.70;1.20;;;7.10;40.30;;;;;;5052451;28;20191;-73
2022/12/04 10:05:48;;;;;;;2.00;1.45;;;7.60;39.20;;;;;;5051458;28;20194;-73
2022/12/04 10:08:34;;;;;;;2.03;1.60;;;7.80;38.50;;;;;;5052142;28;20183;-73
2022/12/04 10:11:18;;;;;;;2.08;1.50;;;7.90;38.50;;;;;;5052301;28;20290;-73
2022/12/04 10:14:17;;;;;;;2.35;1.58;;;8.00;38.60;;;;;;5051899;28;20218;-73
2022/12/04 10:16:43;;;;;;;1.70;1.10;;;8.10;38.10;;;;;;5050630;28;20210;-73
2022/12/04 10:19:34;;;;;;;1.63;1.10;;;8.10;38.60;;;;;;5051953;28;20708;-73
2022/12/04 10:22:16;;;;;;;2.75;1.95;;;8.20;38.40;;;;;;5060029;28;20192;-73
2022/12/04 10:24:52;;;;;;;1.70;1.20;;;8.30;37.70;;;;;;5072031;28;20162;-73
2022/12/04 10:27:41;;;;;;;1.80;1.30;;;8.30;37.50;;;;;;5059406;28;20267;-73
2022/12/04 10:30:23;;;;;;;1.70;1.17;;;8.20;37.50;;;;;;5042715;28;20238;-73
2022/12/04 10:33:00;;;;;;;1.80;1.20;;;7.60;38.90;;;;;;5051137;28;20724;-73
2022/12/04 10:35:31;;;;;;;1.80;1.30;;;7.30;40.20;;;;;;5052149;28;20546;-73
2022/12/04 10:38:29;;;;;;;1.80;1.25;;;7.60;40.40;;;;;;5050860;28;20192;-74
2022/12/04 10:41:03;;;;;;;1.70;1.30;;;7.90;38.90;;;;;;5047391;28;20184;-72
2022/12/04 10:43:47;;;;;;;1.67;1.15;;;7.90;39.30;;;;;;5051856;28;20188;-74
2022/12/04 10:46:25;;;;;;;1.77;1.20;;;7.90;39.30;;;;;;5052499;28;20163;-73
2022/12/04 10:49:02;;;;;;;1.60;1.10;;;7.80;39.10;;;;;;5049824;28;20223;-73
2022/12/04 10:51:36;;;;;;;3.30;2.33;;;7.60;39.60;;;;;;5043525;28;20621;-73
2022/12/04 10:54:28;;;;;;;2.38;1.73;;;7.30;40.20;;;;;;5051890;28;20206;-73
2022/12/04 10:56:56;;;;;;;1.80;1.30;;;7.50;41.00;;;;;;5029940;28;20537;-74
2022/12/04 10:59:23;;;;;;;1.60;1.10;;;7.90;40.20;;;;;;5049403;28;20705;-73
2022/12/04 11:01:51;;;;;;;1.60;1.10;;;7.80;40.20;;;;;;5050246;28;20184;-73
2022/12/04 11:04:26;;;;;;;1.70;1.30;;;8.10;39.60;;;;;;5051397;28;20184;-74
2022/12/04 11:07:08;;;;;;;1.70;1.27;;;8.20;39.50;;;;;;5051463;28;20159;-74
2022/12/04 11:09:34;;;;;;;1.70;1.30;;;8.40;39.20;;;;;;5036991;28;20218;-74
2022/12/04 11:12:15;;;;;;;1.80;1.40;;;8.10;38.90;;;;;;5054880;28;20639;-74
2022/12/04 11:14:40;;;;;;;2.22;1.73;;;7.90;40.30;;;;;;5051591;28;20194;-74
2022/12/04 11:17:06;;;;;;;1.93;1.40;;;7.90;40.20;;;;;;5051446;28;20164;-73
2022/12/04 11:19:35;;;;;;;1.90;1.50;;;8.20;40.00;;;;;;5050091;28;20203;-75
2022/12/04 11:22:16;;;;;;;2.25;1.60;;;9.20;40.30;;;;;;5052424;28;20628;-74
2022/12/04 11:24:48;;;;;;;1.70;1.15;;;7.90;41.40;;;;;;5046758;28;20226;-72
2022/12/04 11:27:30;;;;;;;1.90;1.48;;;8.20;40.70;;;;;;5050431;28;20565;-72
2022/12/04 11:29:57;;;;;;;3.55;1.77;;;8.20;40.00;;;;;;5045632;28;20777;-74
2022/12/04 11:32:31;;;;;;;1.70;1.20;;;8.20;40.00;;;;;;5050766;28;20187;-74
2022/12/04 11:35:19;;;;;;;2.28;1.60;;;8.30;38.90;;;;;;5051028;28;20153;-74
2022/12/04 11:37:57;;;;;;;1.70;1.20;;;8.20;39.10;;;;;;5049544;28;20192;-72
2022/12/04 11:40:25;;;;;;;1.75;1.27;;;8.10;39.10;;;;;;5050525;28;20199;-74
2022/12/04 11:43:02;;;;;;;1.60;1.10;;;8.20;40.10;;;;;;5050737;28;20164;-73
2022/12/04 11:45:28;;;;;;;1.70;1.20;;;7.90;41.00;;;;;;5054427;28;20171;-74
2022/12/04 11:48:00;;;;;;;1.97;1.33;;;7.60;41.20;;;;;;5055241;28;20661;-74
2022/12/04 11:51:03;;;;;;;2.00;1.50;;;7.60;41.10;;;;;;5054153;28;20207;-74
2022/12/04 11:53:54;;;;;;;1.70;1.20;;;7.90;40.20;;;;;;5054065;28;20183;-74
2022/12/04 11:56:33;;;;;;;1.70;1.20;;;8.50;39.50;;;;;;5054707;28;20537;-73
2022/12/04 11:59:27;;;;;;;1.80;1.30;;;8.00;39.70;;;;;;5053865;28;20206;-71
2022/12/04 12:02:32;;;;;;;1.83;1.40;;;8.10;40.00;;;;;;5051042;28;20191;-73
2022/12/04 12:05:07;;;;;;;2.75;1.98;;;8.40;40.00;;;;;;5024279;28;20287;-74
2022/12/04 12:07:44;;;;;;;2.53;1.77;;;8.50;39.60;;;;;;5033687;28;20480;-74
2022/12/04 12:10:21;;;;;;;1.70;1.25;;;8.60;39.50;;;;;;5037612;28;20207;-74
2022/12/04 12:13:25;;;;;;;1.90;1.38;;;8.40;39.70;;;;;;5055566;28;20176;-73
2022/12/04 12:16:30;;;;;;;1.65;1.10;;;8.20;39.60;;;;;;5054781;28;20548;-73
2022/12/04 12:19:07;;;;;;;2.03;1.50;;;8.10;39.60;;;;;;5022712;28;20245;-73
2022/12/04 12:21:59;;;;;;;1.80;1.30;;;8.00;40.80;;;;;;5054027;28;20259;-74
2022/12/04 12:24:30;;;;;;;3.00;1.63;;;8.00;41.00;;;;;;5052776;28;20572;-74
2022/12/04 12:27:26;;;;;;;1.70;1.20;;;7.90;41.20;;;;;;5054500;28;20279;-74
2022/12/04 12:30:02;;;;;;;1.70;1.25;;;8.00;40.70;;;;;;5052770;28;20318;-73
2022/12/04 12:32:46;;;;;;;2.10;1.70;;;8.20;40.40;;;;;;5045876;28;20510;-74
2022/12/04 12:35:21;;;;;;;2.67;1.90;;;8.10;40.10;;;;;;5055642;28;20753;-74
2022/12/04 12:37:51;;;;;;;2.28;1.30;;;8.20;40.30;;;;;;5053455;28;20180;-74
2022/12/04 12:40:35;;;;;;;1.65;1.13;;;8.10;40.00;;;;;;5054190;28;20231;-73
2022/12/04 12:43:14;;;;;;;2.35;1.52;;;7.60;41.20;;;;;;5053928;28;20180;-73
2022/12/04 12:46:05;;;;;;;2.80;1.75;;;7.60;41.30;;;;;;5054304;28;20176;-72
2022/12/04 12:48:48;;;;;;;1.70;1.20;;;7.30;42.30;;;;;;5052115;28;20266;-73
2022/12/04 12:51:28;;;;;;;1.80;1.25;;;7.20;42.40;;;;;;5051977;28;20183;-74
2022/12/04 12:53:59;;;;;;;2.50;1.95;;;6.70;44.60;;;;;;5053775;28;20199;-73
2022/12/04 12:56:34;;;;;;;2.00;1.40;;;6.10;46.20;;;;;;5054080;28;20207;-73
2022/12/04 12:59:03;;;;;;;1.90;1.33;;;6.40;46.50;;;;;;5053111;28;20203;-73
2022/12/04 13:01:57;;;;;;;2.08;1.45;;;6.40;46.50;;;;;;5046045;28;20180;-74
2022/12/04 13:04:42;;;;;;;1.95;1.45;;;6.60;46.60;;;;;;5056274;28;20583;-73
2022/12/04 13:07:25;;;;;;;2.22;1.55;;;6.70;46.00;;;;;;5073732;28;20178;-74
2022/12/04 13:10:04;;;;;;;1.80;1.33;;;7.30;43.90;;;;;;5056485;28;20276;-73
2022/12/04 13:12:44;;;;;;;1.90;1.50;;;7.20;42.90;;;;;;5045627;28;20176;-74
2022/12/04 13:15:20;;;;;;;5.93;2.17;;;7.00;43.60;;;;;;5053696;28;20176;-74
2022/12/04 13:17:49;;;;;;;1.73;1.23;;;7.10;43.50;;;;;;5053837;28;20167;-74
2022/12/04 13:20:29;;;;;;;1.70;1.15;;;7.50;42.40;;;;;;5051394;28;20294;-74
2022/12/04 13:23:17;;;;;;;1.60;1.10;;;7.70;41.40;;;;;;5053183;28;20186;-74
2022/12/04 13:26:06;;;;;;;1.65;1.13;;;7.40;41.90;;;;;;5055575;28;20159;-74
2022/12/04 13:29:01;;;;;;;1.80;1.20;;;7.40;42.30;;;;;;5052586;28;20192;-74
2022/12/04 13:31:56;;;;;;;1.60;1.10;;;7.60;41.40;;;;;;5050412;28;20172;-74
2022/12/04 13:34:48;;;;;;;1.73;1.20;;;7.80;41.90;;;;;;5055351;28;20226;-74
2022/12/04 13:37:33;;;;;;;1.80;1.30;;;7.80;41.40;;;;;;5052523;28;20216;-74